sensor_id;sensor_type;location;lat;lon;timestamp;temperature;humidity
25811;DHT22;13645;52.460;13.910;2023-08-24T00:01:38;16.30;99.90
25811;DHT22;13645;52.460;13.910;2023-08-24T00:04:05;16.30;99.90
25811;DHT22;13645;52.460;13.910;2023-08-24T00:06:32;16.30;99.90
25811;DHT22;13645;52.460;13.910;2023-08-24T00:08:59;16.30;99.90
25811;DHT22;13645;52.460;13.910;2023-08-24T00:11:26;16.20;99.90
25811;DHT22;13645;52.460;13.910;2023-08-24T00:13:53;16.10;99.90
25811;DHT22;13645;52.460;13.910;2023-08-24T00:16:20;16.10;99.90
25811;DHT22;13645;52.460;13.910;2023-08-24T00:18:47;16.10;99.90
25811;DHT22;13645;52.460;13.910;2023-08-24T00:21:14;16.00;99.90
25811;DHT22;13645;52.460;13.910;2023-08-24T00:23:45;16.00;99.90
25811;DHT22;13645;52.460;13.910;2023-08-24T00:26:12;16.10;99.90
25811;DHT22;13645;52.460;13.910;2023-08-24T00:28:39;16.00;99.90
25811;DHT22;13645;52.460;13.910;2023-08-24T00:31:06;16.10;99.90
25811;DHT22;13645;52.460;13.910;2023-08-24T00:33:33;16.00;99.90
25811;DHT22;13645;52.460;13.910;2023-08-24T00:36:01;16.00;99.90
25811;DHT22;13645;52.460;13.910;2023-08-24T00:38:28;15.90;99.90
25811;DHT22;13645;52.460;13.910;2023-08-24T00:40:56;15.90;99.90
25811;DHT22;13645;52.460;13.910;2023-08-24T00:43:23;15.90;99.90
25811;DHT22;13645;52.460;13.910;2023-08-24T00:45:51;15.90;99.90
25811;DHT22;13645;52.460;13.910;2023-08-24T00:48:19;15.90;99.90
25811;DHT22;13645;52.460;13.910;2023-08-24T00:50:47;15.80;99.90
25811;DHT22;13645;52.460;13.910;2023-08-24T00:53:14;15.80;99.90
25811;DHT22;13645;52.460;13.910;2023-08-24T00:55:41;15.80;99.90
25811;DHT22;13645;52.460;13.910;2023-08-24T00:58:08;15.80;99.90
25811;DHT22;13645;52.460;13.910;2023-08-24T01:00:37;15.80;99.90
25811;DHT22;13645;52.460;13.910;2023-08-24T01:03:04;15.70;99.90
25811;DHT22;13645;52.460;13.910;2023-08-24T01:05:31;15.60;99.90
25811;DHT22;13645;52.460;13.910;2023-08-24T01:07:58;15.50;99.90
25811;DHT22;13645;52.460;13.910;2023-08-24T01:10:30;15.50;99.90
25811;DHT22;13645;52.460;13.910;2023-08-24T01:13:10;15.40;99.90
25811;DHT22;13645;52.460;13.910;2023-08-24T01:15:42;15.20;99.90
25811;DHT22;13645;52.460;13.910;2023-08-24T01:18:15;15.20;99.90
25811;DHT22;13645;52.460;13.910;2023-08-24T01:20:44;15.10;99.90
25811;DHT22;13645;52.460;13.910;2023-08-24T01:25:42;14.90;99.90
25811;DHT22;13645;52.460;13.910;2023-08-24T01:28:11;14.90;99.90
25811;DHT22;13645;52.460;13.910;2023-08-24T01:30:39;14.90;99.90
25811;DHT22;13645;52.460;13.910;2023-08-24T01:33:06;15.00;99.90
25811;DHT22;13645;52.460;13.910;2023-08-24T01:35:38;15.00;99.90
25811;DHT22;13645;52.460;13.910;2023-08-24T01:38:06;15.10;99.90
25811;DHT22;13645;52.460;13.910;2023-08-24T01:40:49;15.10;99.90
25811;DHT22;13645;52.460;13.910;2023-08-24T01:43:21;15.10;99.90
25811;DHT22;13645;52.460;13.910;2023-08-24T01:46:08;15.20;99.90
25811;DHT22;13645;52.460;13.910;2023-08-24T01:48:36;15.10;99.90
25811;DHT22;13645;52.460;13.910;2023-08-24T01:51:03;15.10;99.90
25811;DHT22;13645;52.460;13.910;2023-08-24T01:53:31;15.20;99.90
25811;DHT22;13645;52.460;13.910;2023-08-24T01:55:58;15.10;99.90
25811;DHT22;13645;52.460;13.910;2023-08-24T01:58:25;15.20;99.90
25811;DHT22;13645;52.460;13.910;2023-08-24T02:00:52;15.20;99.90
25811;DHT22;13645;52.460;13.910;2023-08-24T02:03:19;15.20;99.90
25811;DHT22;13645;52.460;13.910;2023-08-24T02:05:45;15.20;99.90
25811;DHT22;13645;52.460;13.910;2023-08-24T02:08:12;15.20;99.90
25811;DHT22;13645;52.460;13.910;2023-08-24T02:10:39;15.20;99.90
25811;DHT22;13645;52.460;13.910;2023-08-24T02:13:06;15.30;99.90
25811;DHT22;13645;52.460;13.910;2023-08-24T02:15:32;15.30;99.90
25811;DHT22;13645;52.460;13.910;2023-08-24T02:17:59;15.30;99.90
25811;DHT22;13645;52.460;13.910;2023-08-24T02:20:27;15.40;99.90
25811;DHT22;13645;52.460;13.910;2023-08-24T02:22:53;15.40;99.90
25811;DHT22;13645;52.460;13.910;2023-08-24T02:25:20;15.50;99.90
25811;DHT22;13645;52.460;13.910;2023-08-24T02:27:47;15.50;99.90
25811;DHT22;13645;52.460;13.910;2023-08-24T02:30:15;15.50;99.90
25811;DHT22;13645;52.460;13.910;2023-08-24T02:32:42;15.50;99.90
25811;DHT22;13645;52.460;13.910;2023-08-24T02:35:09;15.50;99.90
25811;DHT22;13645;52.460;13.910;2023-08-24T02:37:36;15.50;99.90
25811;DHT22;13645;52.460;13.910;2023-08-24T02:40:03;15.60;99.90
25811;DHT22;13645;52.460;13.910;2023-08-24T02:42:31;15.50;99.90
25811;DHT22;13645;52.460;13.910;2023-08-24T02:44:58;15.60;99.90
25811;DHT22;13645;52.460;13.910;2023-08-24T02:47:25;15.60;99.90
25811;DHT22;13645;52.460;13.910;2023-08-24T02:49:52;15.70;99.90
25811;DHT22;13645;52.460;13.910;2023-08-24T02:52:19;15.70;99.90
25811;DHT22;13645;52.460;13.910;2023-08-24T02:54:45;15.70;99.90
25811;DHT22;13645;52.460;13.910;2023-08-24T02:57:12;15.70;99.90
25811;DHT22;13645;52.460;13.910;2023-08-24T02:59:39;15.70;99.90
25811;DHT22;13645;52.460;13.910;2023-08-24T03:02:06;15.80;99.90
25811;DHT22;13645;52.460;13.910;2023-08-24T03:04:32;15.80;99.90
25811;DHT22;13645;52.460;13.910;2023-08-24T03:07:00;15.80;99.90
25811;DHT22;13645;52.460;13.910;2023-08-24T03:09:27;15.80;99.90
25811;DHT22;13645;52.460;13.910;2023-08-24T03:11:54;15.90;99.90
25811;DHT22;13645;52.460;13.910;2023-08-24T03:14:20;15.90;99.90
25811;DHT22;13645;52.460;13.910;2023-08-24T03:16:47;16.00;99.90
25811;DHT22;13645;52.460;13.910;2023-08-24T03:19:14;16.00;99.90
25811;DHT22;13645;52.460;13.910;2023-08-24T03:21:41;16.00;99.90
25811;DHT22;13645;52.460;13.910;2023-08-24T03:24:07;16.00;99.90
25811;DHT22;13645;52.460;13.910;2023-08-24T03:26:34;16.00;99.90
25811;DHT22;13645;52.460;13.910;2023-08-24T03:29:01;15.90;99.90
25811;DHT22;13645;52.460;13.910;2023-08-24T03:31:28;15.90;99.90
25811;DHT22;13645;52.460;13.910;2023-08-24T03:33:55;15.90;99.90
25811;DHT22;13645;52.460;13.910;2023-08-24T03:36:22;15.90;99.90
25811;DHT22;13645;52.460;13.910;2023-08-24T03:38:49;16.00;99.90
25811;DHT22;13645;52.460;13.910;2023-08-24T03:41:15;16.00;99.90
25811;DHT22;13645;52.460;13.910;2023-08-24T03:43:42;16.00;99.90
25811;DHT22;13645;52.460;13.910;2023-08-24T03:46:09;16.00;99.90
25811;DHT22;13645;52.460;13.910;2023-08-24T03:48:36;16.10;99.90
25811;DHT22;13645;52.460;13.910;2023-08-24T03:51:02;16.10;99.90
25811;DHT22;13645;52.460;13.910;2023-08-24T03:53:29;16.10;99.90
25811;DHT22;13645;52.460;13.910;2023-08-24T03:55:56;16.10;99.90
25811;DHT22;13645;52.460;13.910;2023-08-24T03:58:23;16.10;99.90
25811;DHT22;13645;52.460;13.910;2023-08-24T04:00:50;16.10;99.90
25811;DHT22;13645;52.460;13.910;2023-08-24T04:03:17;16.10;99.90
25811;DHT22;13645;52.460;13.910;2023-08-24T04:05:44;16.10;99.90
25811;DHT22;13645;52.460;13.910;2023-08-24T04:08:10;16.10;99.90
25811;DHT22;13645;52.460;13.910;2023-08-24T04:10:37;16.10;99.90
25811;DHT22;13645;52.460;13.910;2023-08-24T04:13:04;16.20;99.90
25811;DHT22;13645;52.460;13.910;2023-08-24T04:15:31;16.20;99.90
25811;DHT22;13645;52.460;13.910;2023-08-24T04:17:58;16.20;99.90
25811;DHT22;13645;52.460;13.910;2023-08-24T04:20:24;16.30;99.90
25811;DHT22;13645;52.460;13.910;2023-08-24T04:22:51;16.30;99.90
25811;DHT22;13645;52.460;13.910;2023-08-24T04:25:18;16.30;99.90
25811;DHT22;13645;52.460;13.910;2023-08-24T04:27:45;16.30;99.90
25811;DHT22;13645;52.460;13.910;2023-08-24T04:30:11;16.30;99.90
25811;DHT22;13645;52.460;13.910;2023-08-24T04:32:40;16.30;99.90
25811;DHT22;13645;52.460;13.910;2023-08-24T04:35:07;16.30;99.90
25811;DHT22;13645;52.460;13.910;2023-08-24T04:37:34;16.30;99.90
25811;DHT22;13645;52.460;13.910;2023-08-24T04:40:02;16.40;99.90
25811;DHT22;13645;52.460;13.910;2023-08-24T04:42:30;16.40;99.90
25811;DHT22;13645;52.460;13.910;2023-08-24T04:44:57;16.40;99.90
25811;DHT22;13645;52.460;13.910;2023-08-24T04:47:27;16.40;99.90
25811;DHT22;13645;52.460;13.910;2023-08-24T04:49:53;16.50;99.90
25811;DHT22;13645;52.460;13.910;2023-08-24T04:52:20;16.50;99.90
25811;DHT22;13645;52.460;13.910;2023-08-24T04:54:47;16.50;99.90
25811;DHT22;13645;52.460;13.910;2023-08-24T04:57:14;16.50;99.90
25811;DHT22;13645;52.460;13.910;2023-08-24T04:59:40;16.60;99.90
25811;DHT22;13645;52.460;13.910;2023-08-24T05:02:07;16.60;99.90
25811;DHT22;13645;52.460;13.910;2023-08-24T05:04:34;16.70;99.90
25811;DHT22;13645;52.460;13.910;2023-08-24T05:07:01;16.70;99.90
25811;DHT22;13645;52.460;13.910;2023-08-24T05:09:28;16.70;99.90
25811;DHT22;13645;52.460;13.910;2023-08-24T05:11:54;16.80;99.90
25811;DHT22;13645;52.460;13.910;2023-08-24T05:14:21;16.90;99.90
25811;DHT22;13645;52.460;13.910;2023-08-24T05:16:48;17.00;99.90
25811;DHT22;13645;52.460;13.910;2023-08-24T05:19:15;17.00;99.90
25811;DHT22;13645;52.460;13.910;2023-08-24T05:21:41;17.10;99.90
25811;DHT22;13645;52.460;13.910;2023-08-24T05:24:08;17.20;99.90
25811;DHT22;13645;52.460;13.910;2023-08-24T05:26:35;17.30;99.90
25811;DHT22;13645;52.460;13.910;2023-08-24T05:29:02;17.30;99.90
25811;DHT22;13645;52.460;13.910;2023-08-24T05:31:28;17.40;99.90
25811;DHT22;13645;52.460;13.910;2023-08-24T05:33:55;17.50;99.90
25811;DHT22;13645;52.460;13.910;2023-08-24T05:36:22;17.50;99.90
25811;DHT22;13645;52.460;13.910;2023-08-24T05:38:48;17.50;99.90
25811;DHT22;13645;52.460;13.910;2023-08-24T05:41:18;17.60;99.90
25811;DHT22;13645;52.460;13.910;2023-08-24T05:43:45;17.70;99.90
25811;DHT22;13645;52.460;13.910;2023-08-24T05:46:12;17.80;99.90
25811;DHT22;13645;52.460;13.910;2023-08-24T05:48:38;17.80;99.90
25811;DHT22;13645;52.460;13.910;2023-08-24T05:51:05;17.80;99.90
25811;DHT22;13645;52.460;13.910;2023-08-24T05:53:34;17.90;99.90
25811;DHT22;13645;52.460;13.910;2023-08-24T05:56:00;18.00;99.90
25811;DHT22;13645;52.460;13.910;2023-08-24T05:58:27;18.00;99.90
25811;DHT22;13645;52.460;13.910;2023-08-24T06:00:58;18.10;99.90
25811;DHT22;13645;52.460;13.910;2023-08-24T06:03:25;18.10;99.90
25811;DHT22;13645;52.460;13.910;2023-08-24T06:05:52;18.10;99.90
25811;DHT22;13645;52.460;13.910;2023-08-24T06:08:19;18.10;99.90
25811;DHT22;13645;52.460;13.910;2023-08-24T06:10:46;18.10;99.90
25811;DHT22;13645;52.460;13.910;2023-08-24T06:13:13;18.20;99.90
25811;DHT22;13645;52.460;13.910;2023-08-24T06:15:40;18.30;99.90
25811;DHT22;13645;52.460;13.910;2023-08-24T06:18:08;18.40;99.90
25811;DHT22;13645;52.460;13.910;2023-08-24T06:20:35;18.50;99.90
25811;DHT22;13645;52.460;13.910;2023-08-24T06:23:01;18.50;99.90
25811;DHT22;13645;52.460;13.910;2023-08-24T06:25:29;18.60;99.90
25811;DHT22;13645;52.460;13.910;2023-08-24T06:27:56;18.60;99.90
25811;DHT22;13645;52.460;13.910;2023-08-24T06:30:23;18.70;99.90
25811;DHT22;13645;52.460;13.910;2023-08-24T06:32:49;18.70;99.90
25811;DHT22;13645;52.460;13.910;2023-08-24T06:35:16;18.80;99.90
25811;DHT22;13645;52.460;13.910;2023-08-24T06:37:43;18.80;99.90
25811;DHT22;13645;52.460;13.910;2023-08-24T06:40:10;18.90;99.90
25811;DHT22;13645;52.460;13.910;2023-08-24T06:42:37;19.00;99.90
25811;DHT22;13645;52.460;13.910;2023-08-24T06:45:04;19.00;99.90
25811;DHT22;13645;52.460;13.910;2023-08-24T06:47:31;19.10;99.90
25811;DHT22;13645;52.460;13.910;2023-08-24T06:49:58;19.20;97.70
25811;DHT22;13645;52.460;13.910;2023-08-24T06:52:25;19.40;99.90
25811;DHT22;13645;52.460;13.910;2023-08-24T06:54:51;19.60;92.80
25811;DHT22;13645;52.460;13.910;2023-08-24T06:57:22;19.80;42.00
25811;DHT22;13645;52.460;13.910;2023-08-24T06:59:50;20.10;9.00
25811;DHT22;13645;52.460;13.910;2023-08-24T07:02:17;20.30;1.30
25811;DHT22;13645;52.460;13.910;2023-08-24T07:04:44;20.60;6.50
25811;DHT22;13645;52.460;13.910;2023-08-24T07:07:11;21.00;1.00
25811;DHT22;13645;52.460;13.910;2023-08-24T07:09:38;21.30;1.00
25811;DHT22;13645;52.460;13.910;2023-08-24T07:12:05;21.60;1.00
25811;DHT22;13645;52.460;13.910;2023-08-24T07:14:33;21.90;1.00
25811;DHT22;13645;52.460;13.910;2023-08-24T07:17:00;22.40;1.00
25811;DHT22;13645;52.460;13.910;2023-08-24T07:19:27;22.90;1.00
25811;DHT22;13645;52.460;13.910;2023-08-24T07:21:54;23.30;1.00
25811;DHT22;13645;52.460;13.910;2023-08-24T07:24:20;23.60;1.00
25811;DHT22;13645;52.460;13.910;2023-08-24T07:27:04;23.90;1.00
25811;DHT22;13645;52.460;13.910;2023-08-24T07:29:31;24.10;1.00
25811;DHT22;13645;52.460;13.910;2023-08-24T07:31:58;24.20;1.00
25811;DHT22;13645;52.460;13.910;2023-08-24T07:34:25;24.30;99.90
25811;DHT22;13645;52.460;13.910;2023-08-24T07:36:51;24.40;99.90
25811;DHT22;13645;52.460;13.910;2023-08-24T07:39:19;24.80;99.90
25811;DHT22;13645;52.460;13.910;2023-08-24T07:41:46;25.10;99.90
25811;DHT22;13645;52.460;13.910;2023-08-24T07:44:13;25.10;99.90
25811;DHT22;13645;52.460;13.910;2023-08-24T07:46:40;25.50;99.90
25811;DHT22;13645;52.460;13.910;2023-08-24T07:49:06;25.70;99.90
25811;DHT22;13645;52.460;13.910;2023-08-24T07:51:34;26.10;99.90
25811;DHT22;13645;52.460;13.910;2023-08-24T07:54:00;26.40;99.90
25811;DHT22;13645;52.460;13.910;2023-08-24T07:56:27;26.70;99.90
25811;DHT22;13645;52.460;13.910;2023-08-24T07:58:54;27.00;84.30
25811;DHT22;13645;52.460;13.910;2023-08-24T08:01:21;27.20;1.00
25811;DHT22;13645;52.460;13.910;2023-08-24T08:03:48;27.40;1.00
25811;DHT22;13645;52.460;13.910;2023-08-24T08:06:15;27.50;99.90
25811;DHT22;13645;52.460;13.910;2023-08-24T08:08:41;27.70;1.00
25811;DHT22;13645;52.460;13.910;2023-08-24T08:11:08;27.60;99.90
25811;DHT22;13645;52.460;13.910;2023-08-24T08:13:35;27.70;99.90
25811;DHT22;13645;52.460;13.910;2023-08-24T08:16:06;27.80;1.00
25811;DHT22;13645;52.460;13.910;2023-08-24T08:18:35;27.70;99.90
25811;DHT22;13645;52.460;13.910;2023-08-24T08:21:09;28.10;99.90
25811;DHT22;13645;52.460;13.910;2023-08-24T08:23:37;28.40;1.00
25811;DHT22;13645;52.460;13.910;2023-08-24T08:26:04;28.50;99.90
25811;DHT22;13645;52.460;13.910;2023-08-24T08:28:31;28.50;99.90
25811;DHT22;13645;52.460;13.910;2023-08-24T08:31:00;28.60;1.00
25811;DHT22;13645;52.460;13.910;2023-08-24T08:33:27;28.60;99.90
25811;DHT22;13645;52.460;13.910;2023-08-24T08:35:54;28.70;6.90
25811;DHT22;13645;52.460;13.910;2023-08-24T08:38:21;28.70;99.90
25811;DHT22;13645;52.460;13.910;2023-08-24T08:40:54;28.60;99.90
25811;DHT22;13645;52.460;13.910;2023-08-24T08:43:22;28.50;26.40
25811;DHT22;13645;52.460;13.910;2023-08-24T08:45:51;28.30;99.90
25811;DHT22;13645;52.460;13.910;2023-08-24T08:48:18;28.20;56.00
25811;DHT22;13645;52.460;13.910;2023-08-24T08:50:48;28.40;48.80
25811;DHT22;13645;52.460;13.910;2023-08-24T08:53:16;28.90;1.00
25811;DHT22;13645;52.460;13.910;2023-08-24T08:55:44;28.70;99.90
25811;DHT22;13645;52.460;13.910;2023-08-24T08:58:11;28.50;1.00
25811;DHT22;13645;52.460;13.910;2023-08-24T09:00:38;28.20;99.90
25811;DHT22;13645;52.460;13.910;2023-08-24T09:03:05;28.00;99.90
25811;DHT22;13645;52.460;13.910;2023-08-24T09:05:32;27.60;99.90
25811;DHT22;13645;52.460;13.910;2023-08-24T09:07:59;27.20;1.00
25811;DHT22;13645;52.460;13.910;2023-08-24T09:10:29;26.80;1.00
25811;DHT22;13645;52.460;13.910;2023-08-24T09:12:56;26.60;1.00
25811;DHT22;13645;52.460;13.910;2023-08-24T09:15:26;26.30;1.00
25811;DHT22;13645;52.460;13.910;2023-08-24T09:17:56;26.20;1.00
25811;DHT22;13645;52.460;13.910;2023-08-24T09:20:27;26.00;1.00
25811;DHT22;13645;52.460;13.910;2023-08-24T09:22:56;26.00;1.00
25811;DHT22;13645;52.460;13.910;2023-08-24T09:25:24;25.90;1.00
25811;DHT22;13645;52.460;13.910;2023-08-24T09:28:04;25.80;99.90
25811;DHT22;13645;52.460;13.910;2023-08-24T09:30:37;25.80;1.00
25811;DHT22;13645;52.460;13.910;2023-08-24T09:33:09;25.80;1.00
25811;DHT22;13645;52.460;13.910;2023-08-24T09:35:37;25.70;1.00
25811;DHT22;13645;52.460;13.910;2023-08-24T09:38:23;25.60;99.90
25811;DHT22;13645;52.460;13.910;2023-08-24T09:40:51;25.60;99.90
25811;DHT22;13645;52.460;13.910;2023-08-24T09:43:18;25.50;99.90
25811;DHT22;13645;52.460;13.910;2023-08-24T09:45:52;26.00;1.00
25811;DHT22;13645;52.460;13.910;2023-08-24T09:48:20;26.80;82.10
25811;DHT22;13645;52.460;13.910;2023-08-24T09:50:49;26.80;99.90
25811;DHT22;13645;52.460;13.910;2023-08-24T09:53:22;26.80;1.00
25811;DHT22;13645;52.460;13.910;2023-08-24T09:56:02;26.60;1.00
25811;DHT22;13645;52.460;13.910;2023-08-24T09:58:29;26.60;1.00
25811;DHT22;13645;52.460;13.910;2023-08-24T10:00:57;27.00;91.40
25811;DHT22;13645;52.460;13.910;2023-08-24T10:03:25;27.60;1.00
25811;DHT22;13645;52.460;13.910;2023-08-24T10:05:54;28.10;1.00
25811;DHT22;13645;52.460;13.910;2023-08-24T10:08:37;28.50;85.90
25811;DHT22;13645;52.460;13.910;2023-08-24T10:11:06;28.80;8.30
25811;DHT22;13645;52.460;13.910;2023-08-24T10:13:41;29.00;1.00
25811;DHT22;13645;52.460;13.910;2023-08-24T10:16:12;29.20;1.00
25811;DHT22;13645;52.460;13.910;2023-08-24T10:18:40;29.20;99.90
25811;DHT22;13645;52.460;13.910;2023-08-24T10:21:08;29.00;99.90
25811;DHT22;13645;52.460;13.910;2023-08-24T10:23:36;29.00;99.90
25811;DHT22;13645;52.460;13.910;2023-08-24T10:26:06;29.00;99.90
25811;DHT22;13645;52.460;13.910;2023-08-24T10:28:34;28.90;99.90
25811;DHT22;13645;52.460;13.910;2023-08-24T10:31:02;28.90;99.90
25811;DHT22;13645;52.460;13.910;2023-08-24T10:33:30;28.90;99.90
25811;DHT22;13645;52.460;13.910;2023-08-24T10:35:57;28.90;99.90
25811;DHT22;13645;52.460;13.910;2023-08-24T10:38:26;28.90;99.90
25811;DHT22;13645;52.460;13.910;2023-08-24T10:40:53;28.70;99.90
25811;DHT22;13645;52.460;13.910;2023-08-24T10:43:22;28.70;99.90
25811;DHT22;13645;52.460;13.910;2023-08-24T10:45:59;28.70;23.40
25811;DHT22;13645;52.460;13.910;2023-08-24T10:56:18;29.10;1.00
25811;DHT22;13645;52.460;13.910;2023-08-24T10:58:47;29.20;1.00
25811;DHT22;13645;52.460;13.910;2023-08-24T11:01:15;29.40;1.00
25811;DHT22;13645;52.460;13.910;2023-08-24T11:03:49;29.30;1.00
25811;DHT22;13645;52.460;13.910;2023-08-24T11:06:18;29.50;1.00
25811;DHT22;13645;52.460;13.910;2023-08-24T11:08:49;29.60;1.00
25811;DHT22;13645;52.460;13.910;2023-08-24T11:11:23;29.70;1.00
25811;DHT22;13645;52.460;13.910;2023-08-24T11:14:19;29.70;99.90
25811;DHT22;13645;52.460;13.910;2023-08-24T11:16:49;29.90;99.90
25811;DHT22;13645;52.460;13.910;2023-08-24T11:19:16;30.30;99.90
25811;DHT22;13645;52.460;13.910;2023-08-24T11:21:44;30.70;99.90
25811;DHT22;13645;52.460;13.910;2023-08-24T11:24:15;30.90;99.90
25811;DHT22;13645;52.460;13.910;2023-08-24T11:26:47;31.10;99.90
25811;DHT22;13645;52.460;13.910;2023-08-24T11:29:14;31.40;99.90
25811;DHT22;13645;52.460;13.910;2023-08-24T11:31:42;31.70;99.90
25811;DHT22;13645;52.460;13.910;2023-08-24T11:34:10;31.90;99.90
25811;DHT22;13645;52.460;13.910;2023-08-24T11:36:45;32.00;99.90
25811;DHT22;13645;52.460;13.910;2023-08-24T11:39:20;32.10;99.90
25811;DHT22;13645;52.460;13.910;2023-08-24T11:41:58;32.20;94.00
25811;DHT22;13645;52.460;13.910;2023-08-24T11:44:25;32.30;44.70
25811;DHT22;13645;52.460;13.910;2023-08-24T11:46:58;32.30;32.40
25811;DHT22;13645;52.460;13.910;2023-08-24T11:49:26;32.50;99.90
25811;DHT22;13645;52.460;13.910;2023-08-24T11:51:53;32.70;26.70
25811;DHT22;13645;52.460;13.910;2023-08-24T11:54:20;32.80;1.00
25811;DHT22;13645;52.460;13.910;2023-08-24T11:56:47;32.80;1.00
25811;DHT22;13645;52.460;13.910;2023-08-24T11:59:15;33.00;1.00
25811;DHT22;13645;52.460;13.910;2023-08-24T12:01:43;33.00;1.00
25811;DHT22;13645;52.460;13.910;2023-08-24T12:04:09;33.20;1.00
25811;DHT22;13645;52.460;13.910;2023-08-24T12:06:36;32.90;1.00
25811;DHT22;13645;52.460;13.910;2023-08-24T12:09:05;32.50;1.00
25811;DHT22;13645;52.460;13.910;2023-08-24T12:11:39;32.50;1.00
25811;DHT22;13645;52.460;13.910;2023-08-24T12:14:06;32.50;1.00
25811;DHT22;13645;52.460;13.910;2023-08-24T12:16:36;32.70;1.00
25811;DHT22;13645;52.460;13.910;2023-08-24T12:19:07;32.80;1.00
25811;DHT22;13645;52.460;13.910;2023-08-24T12:21:34;32.30;1.00
25811;DHT22;13645;52.460;13.910;2023-08-24T12:24:06;32.20;1.00
25811;DHT22;13645;52.460;13.910;2023-08-24T12:26:36;32.10;1.00
25811;DHT22;13645;52.460;13.910;2023-08-24T12:29:05;32.10;1.00
25811;DHT22;13645;52.460;13.910;2023-08-24T12:31:36;32.00;1.00
25811;DHT22;13645;52.460;13.910;2023-08-24T12:34:07;32.00;1.00
25811;DHT22;13645;52.460;13.910;2023-08-24T12:36:38;32.10;1.00
25811;DHT22;13645;52.460;13.910;2023-08-24T12:39:06;32.20;1.00
25811;DHT22;13645;52.460;13.910;2023-08-24T12:41:37;32.40;1.00
25811;DHT22;13645;52.460;13.910;2023-08-24T12:44:04;32.40;1.00
25811;DHT22;13645;52.460;13.910;2023-08-24T12:46:37;32.30;1.00
25811;DHT22;13645;52.460;13.910;2023-08-24T12:49:04;32.20;1.00
25811;DHT22;13645;52.460;13.910;2023-08-24T12:51:31;32.50;1.00
25811;DHT22;13645;52.460;13.910;2023-08-24T12:53:58;32.70;1.00
25811;DHT22;13645;52.460;13.910;2023-08-24T12:56:24;32.70;1.00
25811;DHT22;13645;52.460;13.910;2023-08-24T12:58:51;32.80;1.00
25811;DHT22;13645;52.460;13.910;2023-08-24T13:01:18;32.80;1.00
25811;DHT22;13645;52.460;13.910;2023-08-24T13:03:45;33.10;1.00
25811;DHT22;13645;52.460;13.910;2023-08-24T13:06:11;33.30;1.00
25811;DHT22;13645;52.460;13.910;2023-08-24T13:08:53;32.80;1.00
25811;DHT22;13645;52.460;13.910;2023-08-24T13:11:22;32.70;1.00
25811;DHT22;13645;52.460;13.910;2023-08-24T13:13:49;32.40;1.00
25811;DHT22;13645;52.460;13.910;2023-08-24T13:16:16;32.40;1.00
25811;DHT22;13645;52.460;13.910;2023-08-24T13:18:43;32.40;1.00
25811;DHT22;13645;52.460;13.910;2023-08-24T13:21:09;32.40;1.00
25811;DHT22;13645;52.460;13.910;2023-08-24T13:23:36;32.40;1.00
25811;DHT22;13645;52.460;13.910;2023-08-24T13:26:03;32.50;1.00
25811;DHT22;13645;52.460;13.910;2023-08-24T13:28:30;32.60;1.00
25811;DHT22;13645;52.460;13.910;2023-08-24T13:30:57;32.80;1.00
25811;DHT22;13645;52.460;13.910;2023-08-24T13:33:23;32.60;1.00
25811;DHT22;13645;52.460;13.910;2023-08-24T13:35:50;32.60;1.00
25811;DHT22;13645;52.460;13.910;2023-08-24T13:38:17;32.60;1.00
25811;DHT22;13645;52.460;13.910;2023-08-24T13:40:44;32.40;1.00
25811;DHT22;13645;52.460;13.910;2023-08-24T13:43:14;32.50;1.00
25811;DHT22;13645;52.460;13.910;2023-08-24T13:45:41;32.50;1.00
25811;DHT22;13645;52.460;13.910;2023-08-24T13:48:07;32.70;1.00
25811;DHT22;13645;52.460;13.910;2023-08-24T13:50:34;32.80;1.00
25811;DHT22;13645;52.460;13.910;2023-08-24T13:53:01;32.60;1.00
25811;DHT22;13645;52.460;13.910;2023-08-24T13:55:29;32.20;1.00
25811;DHT22;13645;52.460;13.910;2023-08-24T13:57:56;32.00;1.00
25811;DHT22;13645;52.460;13.910;2023-08-24T14:00:23;31.80;1.00
25811;DHT22;13645;52.460;13.910;2023-08-24T14:02:50;31.80;1.00
25811;DHT22;13645;52.460;13.910;2023-08-24T14:05:17;31.80;1.00
25811;DHT22;13645;52.460;13.910;2023-08-24T14:07:44;31.80;1.00
25811;DHT22;13645;52.460;13.910;2023-08-24T14:10:11;31.80;1.00
25811;DHT22;13645;52.460;13.910;2023-08-24T14:12:38;31.80;1.00
25811;DHT22;13645;52.460;13.910;2023-08-24T14:15:05;31.70;1.00
25811;DHT22;13645;52.460;13.910;2023-08-24T14:17:33;31.80;1.00
25811;DHT22;13645;52.460;13.910;2023-08-24T14:20:00;31.80;1.00
25811;DHT22;13645;52.460;13.910;2023-08-24T14:22:27;31.90;1.00
25811;DHT22;13645;52.460;13.910;2023-08-24T14:24:54;31.90;1.00
25811;DHT22;13645;52.460;13.910;2023-08-24T14:27:20;31.90;1.00
25811;DHT22;13645;52.460;13.910;2023-08-24T14:29:47;31.90;1.00
25811;DHT22;13645;52.460;13.910;2023-08-24T14:32:14;31.80;1.00
25811;DHT22;13645;52.460;13.910;2023-08-24T14:34:41;31.80;1.00
25811;DHT22;13645;52.460;13.910;2023-08-24T14:37:08;31.70;1.00
25811;DHT22;13645;52.460;13.910;2023-08-24T14:39:35;31.70;1.00
25811;DHT22;13645;52.460;13.910;2023-08-24T14:42:01;31.50;1.00
25811;DHT22;13645;52.460;13.910;2023-08-24T14:44:29;31.20;1.00
25811;DHT22;13645;52.460;13.910;2023-08-24T14:46:56;31.00;1.00
25811;DHT22;13645;52.460;13.910;2023-08-24T14:49:23;30.80;1.00
25811;DHT22;13645;52.460;13.910;2023-08-24T14:51:50;30.80;1.00
25811;DHT22;13645;52.460;13.910;2023-08-24T14:54:16;31.00;1.00
25811;DHT22;13645;52.460;13.910;2023-08-24T14:56:43;31.10;1.00
25811;DHT22;13645;52.460;13.910;2023-08-24T14:59:10;31.00;1.00
25811;DHT22;13645;52.460;13.910;2023-08-24T15:01:37;31.00;1.00
25811;DHT22;13645;52.460;13.910;2023-08-24T15:04:03;30.80;1.00
25811;DHT22;13645;52.460;13.910;2023-08-24T15:06:30;30.70;1.00
25811;DHT22;13645;52.460;13.910;2023-08-24T15:08:57;30.50;1.00
25811;DHT22;13645;52.460;13.910;2023-08-24T15:11:25;30.50;1.00
25811;DHT22;13645;52.460;13.910;2023-08-24T15:13:53;30.50;1.00
25811;DHT22;13645;52.460;13.910;2023-08-24T15:16:19;30.40;1.00
25811;DHT22;13645;52.460;13.910;2023-08-24T15:18:46;30.40;1.00
25811;DHT22;13645;52.460;13.910;2023-08-24T15:21:13;30.40;1.00
25811;DHT22;13645;52.460;13.910;2023-08-24T15:23:41;30.50;1.00
25811;DHT22;13645;52.460;13.910;2023-08-24T15:26:08;30.40;1.00
25811;DHT22;13645;52.460;13.910;2023-08-24T15:28:36;30.40;1.00
25811;DHT22;13645;52.460;13.910;2023-08-24T15:31:03;30.40;1.00
25811;DHT22;13645;52.460;13.910;2023-08-24T15:33:31;30.30;1.00
25811;DHT22;13645;52.460;13.910;2023-08-24T15:35:58;30.30;1.00
25811;DHT22;13645;52.460;13.910;2023-08-24T15:38:25;30.30;1.00